Time;durP1;ratioP1;P1;durP2;ratioP2;P2;SDS_P1;SDS_P2;PMS_P1;PMS_P2;Temp;Humidity;BMP_temperature;BMP_pressure;BME280_temperature;BME280_humidity;BME280_pressure;Samples;Min_cycle;Max_cycle;Signal;HPM_P1;HPM_P2
2023/11/04 00:01:31;;;;;;;2.40;1.00;;;22.30;39.30;;;;;;6179791;23;20558;-42
2023/11/04 00:03:58;;;;;;;1.10;1.00;;;22.30;39.30;;;;;;6183270;23;20266;-42
2023/11/04 00:06:24;;;;;;;1.38;1.17;;;22.30;40.00;;;;;;6183774;23;20262;-42
2023/11/04 00:08:52;;;;;;;2.13;1.15;;;22.30;39.40;;;;;;6182211;23;20285;-42
2023/11/04 00:11:18;;;;;;;1.10;1.00;;;22.30;39.40;;;;;;6181961;23;20178;-42
2023/11/04 00:13:45;;;;;;;1.65;1.00;;;22.30;39.40;;;;;;6181395;23;20628;-42
2023/11/04 00:16:12;;;;;;;1.25;1.08;;;22.30;39.40;;;;;;6178909;23;20689;-42
2023/11/04 00:18:39;;;;;;;1.08;1.05;;;22.30;39.40;;;;;;6180705;23;20198;-42
2023/11/04 00:21:07;;;;;;;1.00;1.00;;;22.30;39.50;;;;;;6182519;23;20210;-42
2023/11/04 00:23:33;;;;;;;1.10;1.00;;;22.30;39.40;;;;;;6182197;23;20167;-41
2023/11/04 00:25:59;;;;;;;1.45;1.02;;;22.30;39.60;;;;;;6182432;23;20210;-42
2023/11/04 00:28:26;;;;;;;1.70;1.60;;;22.30;39.60;;;;;;6183697;23;20457;-42
2023/11/04 00:30:52;;;;;;;1.35;1.00;;;22.30;39.60;;;;;;6182596;23;20210;-42
2023/11/04 00:33:19;;;;;;;1.23;1.05;;;22.30;39.60;;;;;;6180278;23;20258;-42
2023/11/04 00:35:46;;;;;;;1.30;0.90;;;22.30;39.60;;;;;;6181965;23;20206;-42
2023/11/04 00:38:12;;;;;;;1.10;1.00;;;22.30;39.70;;;;;;6182182;23;20249;-42
2023/11/04 00:40:39;;;;;;;1.58;1.10;;;22.30;39.70;;;;;;6181425;23;20258;-42
2023/11/04 00:43:05;;;;;;;1.02;0.90;;;22.30;39.60;;;;;;6177401;23;20253;-42
2023/11/04 00:45:32;;;;;;;1.40;1.00;;;22.20;39.50;;;;;;6181608;23;20181;-42
2023/11/04 00:47:58;;;;;;;1.42;1.10;;;22.30;39.70;;;;;;6183229;23;20236;-42
2023/11/04 00:50:24;;;;;;;3.08;1.15;;;22.30;39.70;;;;;;6181788;23;20197;-42
2023/11/04 00:52:50;;;;;;;1.20;1.10;;;22.30;39.90;;;;;;6182790;23;20647;-41
2023/11/04 00:55:18;;;;;;;2.53;1.23;;;22.30;39.70;;;;;;6183011;23;20205;-42
2023/11/04 00:57:44;;;;;;;1.58;1.40;;;22.30;39.70;;;;;;6183667;23;20199;-42
2023/11/04 01:00:11;;;;;;;1.23;1.10;;;22.30;39.70;;;;;;6179929;23;20182;-42
2023/11/04 01:02:37;;;;;;;2.22;1.10;;;22.30;39.60;;;;;;6180485;23;20260;-42
2023/11/04 01:05:04;;;;;;;1.10;1.00;;;22.30;39.70;;;;;;6181398;23;20265;-42
2023/11/04 01:07:30;;;;;;;2.08;1.10;;;22.30;39.70;;;;;;6183783;23;20277;-41
2023/11/04 01:09:57;;;;;;;1.20;1.10;;;22.30;39.70;;;;;;6182468;23;20197;-42
2023/11/04 01:12:24;;;;;;;0.95;0.95;;;22.30;39.70;;;;;;6183291;23;20261;-42
2023/11/04 01:14:50;;;;;;;1.30;0.90;;;22.30;39.70;;;;;;6182199;23;20226;-42
2023/11/04 01:17:17;;;;;;;0.95;0.90;;;22.30;39.70;;;;;;6182517;23;20245;-42
2023/11/04 01:19:43;;;;;;;1.45;1.35;;;22.30;39.70;;;;;;6179457;23;20265;-42
2023/11/04 01:22:10;;;;;;;2.47;1.15;;;22.30;39.70;;;;;;6181586;23;20221;-42
2023/11/04 01:24:36;;;;;;;1.10;1.00;;;22.30;39.80;;;;;;6182558;23;20175;-42
2023/11/04 01:27:07;;;;;;;1.58;1.10;;;22.20;39.70;;;;;;6183423;23;20206;-42
2023/11/04 01:29:34;;;;;;;1.02;1.02;;;22.20;39.70;;;;;;6182451;23;20166;-42
2023/11/04 01:31:59;;;;;;;1.92;1.15;;;22.30;39.90;;;;;;6182141;23;20257;-42
2023/11/04 01:34:26;;;;;;;1.10;1.00;;;22.20;39.80;;;;;;6183045;23;20259;-41
2023/11/04 01:36:52;;;;;;;1.05;1.00;;;22.30;40.00;;;;;;6177305;23;20202;-42
2023/11/04 01:39:19;;;;;;;1.42;1.33;;;22.30;39.90;;;;;;6181598;23;20489;-42
2023/11/04 01:41:46;;;;;;;1.05;1.02;;;22.30;39.90;;;;;;6181851;23;20571;-42
2023/11/04 01:44:12;;;;;;;1.13;1.10;;;22.20;39.90;;;;;;6181434;23;20528;-43
2023/11/04 01:46:39;;;;;;;1.33;1.20;;;22.20;39.90;;;;;;6181374;23;20514;-42
2023/11/04 01:49:05;;;;;;;0.98;0.82;;;22.30;40.00;;;;;;6182100;23;20281;-42
2023/11/04 01:51:32;;;;;;;2.45;1.40;;;22.20;39.90;;;;;;6183406;23;20182;-42
2023/11/04 01:53:58;;;;;;;1.10;0.98;;;22.20;39.90;;;;;;6182406;23;20261;-42
2023/11/04 01:56:25;;;;;;;1.20;1.10;;;22.30;40.00;;;;;;6182759;23;20285;-42
2023/11/04 01:58:51;;;;;;;1.17;0.98;;;22.30;40.00;;;;;;6182420;23;20202;-42
2023/11/04 02:01:18;;;;;;;1.25;1.15;;;22.20;39.90;;;;;;6177780;23;20257;-42
2023/11/04 02:03:44;;;;;;;1.48;0.93;;;22.30;40.00;;;;;;6182497;23;20261;-42
2023/11/04 02:06:11;;;;;;;0.90;0.90;;;22.30;40.00;;;;;;6182511;23;20257;-42
2023/11/04 02:08:37;;;;;;;0.98;0.90;;;22.30;40.00;;;;;;6182627;23;20571;-42
2023/11/04 02:11:03;;;;;;;1.42;1.05;;;22.30;40.00;;;;;;6182989;23;20558;-42
2023/11/04 02:13:30;;;;;;;0.98;0.98;;;22.30;40.00;;;;;;6183969;23;20254;-42
2023/11/04 02:15:56;;;;;;;1.65;0.93;;;22.30;40.00;;;;;;6182037;23;20281;-42
2023/11/04 02:18:23;;;;;;;1.63;1.00;;;22.30;40.00;;;;;;6178595;23;20234;-42
2023/11/04 02:20:49;;;;;;;0.95;0.88;;;22.30;40.10;;;;;;6180823;23;20460;-42
2023/11/04 02:23:16;;;;;;;1.10;0.80;;;22.30;40.20;;;;;;6179588;23;20201;-42
2023/11/04 02:25:42;;;;;;;1.35;1.10;;;22.30;40.00;;;;;;6182493;23;20186;-42
2023/11/04 02:28:09;;;;;;;0.90;0.90;;;22.20;40.10;;;;;;6182899;23;20233;-42
2023/11/04 02:30:35;;;;;;;0.80;0.80;;;22.20;40.10;;;;;;6183158;23;20266;-42
2023/11/04 02:33:02;;;;;;;0.95;0.95;;;22.20;40.10;;;;;;6184526;23;20225;-42
2023/11/04 02:35:28;;;;;;;1.17;1.08;;;22.30;40.20;;;;;;6184651;23;20230;-43
2023/11/04 02:37:54;;;;;;;0.90;0.90;;;22.20;40.10;;;;;;6183801;23;20277;-42
2023/11/04 02:40:21;;;;;;;1.10;1.00;;;22.30;40.20;;;;;;6181111;23;20719;-42
2023/11/04 02:42:47;;;;;;;1.67;0.90;;;22.30;40.20;;;;;;6183623;23;20179;-42
2023/11/04 02:45:14;;;;;;;0.90;0.90;;;22.30;40.20;;;;;;6183098;23;20217;-42
2023/11/04 02:47:41;;;;;;;1.10;0.98;;;22.30;40.20;;;;;;6184408;23;20619;-42
2023/11/04 02:50:07;;;;;;;1.10;1.02;;;22.20;40.20;;;;;;6184435;23;20489;-42
2023/11/04 02:52:34;;;;;;;1.05;1.00;;;22.30;40.30;;;;;;6184142;23;20182;-42
2023/11/04 02:55:00;;;;;;;1.10;1.00;;;22.30;40.20;;;;;;6183795;23;20261;-42
2023/11/04 02:57:27;;;;;;;1.60;1.00;;;22.20;40.10;;;;;;6184943;23;20277;-42
2023/11/04 02:59:53;;;;;;;1.27;0.88;;;22.20;40.20;;;;;;6180764;23;20633;-42
2023/11/04 03:02:20;;;;;;;1.40;0.98;;;22.30;40.20;;;;;;6179257;23;20549;-42
2023/11/04 03:04:46;;;;;;;1.20;0.93;;;22.30;40.20;;;;;;6184906;23;20185;-42
2023/11/04 03:07:13;;;;;;;1.10;1.00;;;22.30;40.20;;;;;;6184015;23;20206;-41
2023/11/04 03:09:40;;;;;;;1.77;1.02;;;22.30;40.20;;;;;;6182085;23;20189;-42
2023/11/04 03:12:06;;;;;;;1.55;0.90;;;22.30;40.20;;;;;;6184247;23;20178;-42
2023/11/04 03:14:33;;;;;;;0.90;0.90;;;22.30;40.30;;;;;;6183805;23;20213;-42
2023/11/04 03:16:59;;;;;;;1.08;1.08;;;22.30;40.30;;;;;;6182337;23;20220;-42
2023/11/04 03:19:26;;;;;;;1.05;0.95;;;22.30;40.30;;;;;;6181505;23;20206;-42
2023/11/04 03:21:52;;;;;;;1.40;1.10;;;22.30;40.30;;;;;;6182180;23;20269;-42
2023/11/04 03:24:19;;;;;;;0.88;0.80;;;22.30;40.20;;;;;;6185032;23;20261;-43
2023/11/04 03:26:45;;;;;;;1.42;0.90;;;22.30;40.20;;;;;;6183622;23;20182;-42
2023/11/04 03:29:11;;;;;;;1.00;0.90;;;22.30;40.20;;;;;;6182323;23;20175;-42
2023/11/04 03:31:38;;;;;;;1.33;0.85;;;22.20;40.30;;;;;;6183611;23;20181;-42
2023/11/04 03:34:04;;;;;;;1.15;1.05;;;22.20;40.30;;;;;;6183972;23;20206;-42
2023/11/04 03:36:31;;;;;;;0.80;0.80;;;22.20;40.30;;;;;;6181841;23;20357;-42
2023/11/04 03:38:57;;;;;;;0.98;0.95;;;22.30;40.40;;;;;;6181770;23;20291;-42
2023/11/04 03:41:24;;;;;;;1.70;1.00;;;22.20;40.30;;;;;;6182509;23;20257;-42
2023/11/04 03:43:50;;;;;;;0.85;0.80;;;22.20;40.30;;;;;;6184455;23;20259;-41
2023/11/04 03:46:18;;;;;;;0.95;0.85;;;22.30;40.40;;;;;;6183606;23;20174;-42
2023/11/04 03:48:45;;;;;;;1.13;1.02;;;22.20;40.40;;;;;;6182545;23;20206;-42
2023/11/04 03:51:11;;;;;;;1.05;0.90;;;22.30;40.40;;;;;;6183949;23;20178;-42
2023/11/04 03:53:38;;;;;;;0.80;0.80;;;22.20;40.30;;;;;;6183867;23;20174;-41
2023/11/04 03:56:04;;;;;;;0.90;0.90;;;22.30;40.50;;;;;;6181139;23;20202;-42
2023/11/04 03:58:31;;;;;;;1.00;0.80;;;22.20;40.40;;;;;;6180590;23;20305;-42
2023/11/04 04:00:57;;;;;;;1.75;0.98;;;22.20;40.70;;;;;;6184266;23;20178;-42
2023/11/04 04:03:24;;;;;;;1.60;0.90;;;22.30;40.40;;;;;;6183390;23;20254;-42
2023/11/04 04:05:50;;;;;;;1.10;1.10;;;22.20;40.40;;;;;;6183384;23;20179;-42
2023/11/04 04:08:17;;;;;;;2.40;1.10;;;22.30;40.40;;;;;;6181879;23;20667;-42
2023/11/04 04:10:43;;;;;;;0.70;0.70;;;22.30;40.40;;;;;;6183596;23;20178;-42
2023/11/04 04:13:10;;;;;;;0.95;0.95;;;22.30;40.40;;;;;;6180593;23;20257;-42
2023/11/04 04:15:36;;;;;;;0.88;0.88;;;22.20;40.40;;;;;;6181777;23;20280;-42
2023/11/04 04:18:03;;;;;;;0.80;0.80;;;22.20;40.50;;;;;;6182701;23;20643;-42
2023/11/04 04:20:29;;;;;;;0.80;0.80;;;22.20;40.50;;;;;;6182802;23;20198;-42
2023/11/04 04:22:56;;;;;;;1.80;1.13;;;22.20;40.40;;;;;;6183329;23;20186;-42
2023/11/04 04:25:22;;;;;;;0.90;0.90;;;22.30;40.40;;;;;;6183599;23;20265;-42
2023/11/04 04:27:48;;;;;;;0.77;0.77;;;22.30;40.40;;;;;;6182583;23;20281;-42
2023/11/04 04:30:16;;;;;;;1.00;1.00;;;22.30;40.50;;;;;;6180295;23;20265;-41
2023/11/04 04:32:42;;;;;;;1.35;0.90;;;22.20;40.40;;;;;;6181300;23;20266;-42
2023/11/04 04:35:09;;;;;;;1.25;1.00;;;22.20;40.50;;;;;;6182549;23;20233;-42
2023/11/04 04:37:35;;;;;;;0.80;0.80;;;22.20;40.50;;;;;;6182664;23;20754;-42
2023/11/04 04:40:04;;;;;;;1.05;1.00;;;22.20;40.50;;;;;;6182512;23;20178;-42
2023/11/04 04:42:31;;;;;;;0.90;0.82;;;22.20;40.50;;;;;;6182654;23;20258;-42
2023/11/04 04:44:57;;;;;;;1.48;0.68;;;22.20;40.50;;;;;;6183555;23;20261;-43
2023/11/04 04:47:24;;;;;;;1.23;1.00;;;22.20;40.50;;;;;;6182789;23;20286;-42
2023/11/04 04:49:50;;;;;;;0.85;0.80;;;22.20;40.50;;;;;;6181521;23;20261;-42
2023/11/04 04:52:17;;;;;;;0.70;0.70;;;22.30;40.60;;;;;;6180219;23;20257;-42
2023/11/04 04:54:43;;;;;;;1.08;0.80;;;22.20;40.50;;;;;;6181463;23;20178;-42
2023/11/04 04:57:10;;;;;;;0.70;0.65;;;22.20;40.50;;;;;;6183388;23;20284;-42
2023/11/04 04:59:36;;;;;;;0.85;0.85;;;22.20;40.60;;;;;;6182401;23;20249;-42
2023/11/04 05:02:03;;;;;;;0.70;0.70;;;22.20;40.50;;;;;;6180286;23;20258;-42
2023/11/04 05:04:29;;;;;;;1.25;0.90;;;22.20;40.50;;;;;;6181749;23;20253;-42
2023/11/04 05:06:56;;;;;;;0.88;0.88;;;22.20;40.50;;;;;;6183767;23;20201;-42
2023/11/04 05:09:24;;;;;;;0.80;0.80;;;22.20;40.50;;;;;;6182014;23;20186;-42
2023/11/04 05:11:52;;;;;;;0.80;0.80;;;22.20;40.50;;;;;;6182598;23;20179;-42
2023/11/04 05:14:18;;;;;;;1.63;1.02;;;22.30;40.60;;;;;;6184150;23;20182;-42
2023/11/04 05:16:45;;;;;;;0.88;0.88;;;22.20;40.50;;;;;;6182525;23;20281;-42
2023/11/04 05:19:11;;;;;;;1.10;0.90;;;22.20;40.60;;;;;;6178241;23;20262;-42
2023/11/04 05:21:38;;;;;;;1.05;1.00;;;22.20;40.60;;;;;;6182700;23;20236;-42
2023/11/04 05:24:04;;;;;;;1.88;0.90;;;22.20;40.60;;;;;;6183218;23;20266;-42
2023/11/04 05:26:31;;;;;;;0.82;0.82;;;22.20;41.20;;;;;;6183854;23;20202;-42
2023/11/04 05:28:57;;;;;;;0.93;0.90;;;22.20;40.50;;;;;;6181530;23;20258;-42
2023/11/04 05:31:24;;;;;;;0.80;0.80;;;22.20;40.50;;;;;;6182621;23;20182;-42
2023/11/04 05:33:50;;;;;;;0.80;0.80;;;22.20;40.50;;;;;;6183310;23;20253;-41
2023/11/04 05:36:18;;;;;;;0.88;0.70;;;22.20;40.50;;;;;;6180653;23;20198;-42
2023/11/04 05:38:45;;;;;;;0.80;0.80;;;22.20;40.60;;;;;;6181905;23;20178;-42
2023/11/04 05:41:11;;;;;;;0.85;0.85;;;22.20;40.60;;;;;;6183200;23;20183;-42
2023/11/04 05:43:37;;;;;;;0.80;0.80;;;22.20;40.60;;;;;;6183005;23;20174;-41
2023/11/04 05:46:04;;;;;;;1.13;1.02;;;22.20;40.60;;;;;;6181866;23;20190;-42
2023/11/04 05:48:31;;;;;;;0.80;0.80;;;22.30;40.70;;;;;;6181404;23;20704;-42
2023/11/04 05:50:57;;;;;;;0.80;0.80;;;22.20;40.60;;;;;;6182123;23;20178;-42
2023/11/04 05:53:24;;;;;;;0.95;0.95;;;22.20;40.60;;;;;;6183698;23;20178;-42
2023/11/04 05:55:50;;;;;;;2.28;1.00;;;22.20;41.00;;;;;;6182053;23;20174;-41
2023/11/04 05:58:17;;;;;;;1.02;0.93;;;22.10;41.20;;;;;;6179332;23;20233;-42
2023/11/04 06:00:43;;;;;;;1.30;0.98;;;22.20;41.30;;;;;;6175929;23;20278;-42
2023/11/04 06:03:10;;;;;;;0.98;0.90;;;22.20;41.00;;;;;;6181640;23;20354;-42
2023/11/04 06:05:36;;;;;;;1.92;1.00;;;22.20;41.00;;;;;;6183213;23;20182;-42
2023/11/04 06:08:03;;;;;;;1.20;0.98;;;22.20;40.90;;;;;;6180441;23;20202;-42
2023/11/04 06:10:29;;;;;;;1.77;0.80;;;22.20;40.90;;;;;;6179908;23;20684;-42
2023/11/04 06:12:56;;;;;;;2.22;1.05;;;22.20;40.90;;;;;;6182065;23;20660;-42
2023/11/04 06:15:23;;;;;;;2.38;1.70;;;22.20;40.80;;;;;;6178382;23;20255;-42
2023/11/04 06:17:49;;;;;;;2.53;1.00;;;22.20;40.80;;;;;;6180915;23;20230;-42
2023/11/04 06:20:15;;;;;;;3.08;1.13;;;22.20;40.90;;;;;;6179954;23;20178;-42
2023/11/04 06:22:42;;;;;;;1.63;0.80;;;22.20;40.90;;;;;;6180283;23;20182;-42
2023/11/04 06:25:08;;;;;;;3.72;0.80;;;22.20;40.90;;;;;;6179700;23;20209;-42
2023/11/04 06:27:35;;;;;;;2.92;1.35;;;22.20;40.90;;;;;;6177075;23;20288;-42
2023/11/04 06:30:01;;;;;;;2.75;1.30;;;22.20;41.00;;;;;;6179137;23;20206;-42
2023/11/04 06:32:28;;;;;;;1.23;1.00;;;22.20;41.00;;;;;;6183314;23;20213;-42
2023/11/04 06:34:54;;;;;;;2.33;1.25;;;22.20;41.00;;;;;;6183991;23;20167;-43
2023/11/04 06:37:21;;;;;;;3.75;1.13;;;22.20;41.10;;;;;;6182121;23;20221;-42
2023/11/04 06:39:47;;;;;;;1.33;0.82;;;22.20;41.10;;;;;;6182137;23;20257;-42
2023/11/04 06:42:18;;;;;;;3.05;0.90;;;22.20;41.10;;;;;;6183558;23;20431;-42
2023/11/04 06:44:44;;;;;;;3.25;1.00;;;22.20;41.00;;;;;;6184312;23;20193;-42
2023/11/04 06:47:11;;;;;;;2.45;1.25;;;22.20;41.10;;;;;;6183669;23;20277;-42
2023/11/04 06:49:37;;;;;;;2.35;0.90;;;22.20;41.10;;;;;;6183514;23;20232;-42
2023/11/04 06:52:04;;;;;;;2.88;1.17;;;22.20;41.10;;;;;;6184171;23;20270;-42
2023/11/04 06:54:30;;;;;;;2.85;1.10;;;22.20;41.10;;;;;;6181582;23;20266;-42
2023/11/04 06:56:57;;;;;;;3.13;1.30;;;22.20;41.10;;;;;;6177406;23;20220;-41
2023/11/04 06:59:23;;;;;;;1.83;1.02;;;22.20;41.20;;;;;;6178864;23;20548;-42
2023/11/04 07:01:49;;;;;;;2.38;1.60;;;22.20;41.20;;;;;;6180523;23;20257;-41
2023/11/04 07:04:16;;;;;;;4.03;1.10;;;22.20;41.30;;;;;;6178836;23;20181;-41
2023/11/04 07:06:44;;;;;;;3.40;1.30;;;22.10;41.30;;;;;;6182876;23;20516;-41
2023/11/04 07:09:10;;;;;;;6.57;1.40;;;22.10;41.30;;;;;;6178712;23;20190;-41
2023/11/04 07:11:37;;;;;;;6.68;1.55;;;22.10;41.30;;;;;;6182927;23;20174;-41
2023/11/04 07:14:03;;;;;;;8.50;1.65;;;22.10;41.40;;;;;;6183974;23;20415;-42
2023/11/04 07:16:30;;;;;;;3.70;1.73;;;21.90;37.20;;;;;;6183014;23;20209;-37
2023/11/04 07:18:58;;;;;;;3.10;1.40;;;20.60;31.60;;;;;;6182140;23;20203;-42
2023/11/04 07:21:24;;;;;;;2.63;1.40;;;19.80;33.50;;;;;;6178647;23;20222;-42
2023/11/04 07:23:51;;;;;;;2.90;1.30;;;20.30;33.90;;;;;;6183371;23;20229;-42
2023/11/04 07:26:17;;;;;;;1.60;1.20;;;20.80;34.70;;;;;;6181352;23;20521;-42
2023/11/04 07:28:43;;;;;;;2.53;1.10;;;21.10;35.90;;;;;;6183485;23;20257;-43
2023/11/04 07:31:10;;;;;;;2.13;1.45;;;21.30;36.60;;;;;;6184509;23;20257;-42
2023/11/04 07:33:37;;;;;;;1.30;1.00;;;21.40;37.10;;;;;;6177486;23;20179;-43
2023/11/04 07:36:04;;;;;;;2.50;1.05;;;21.50;37.40;;;;;;6183436;23;20277;-43
2023/11/04 07:38:30;;;;;;;2.40;1.10;;;21.60;37.70;;;;;;6183710;23;20520;-40
2023/11/04 07:40:57;;;;;;;2.80;1.23;;;21.70;37.90;;;;;;6183819;23;20509;-40
2023/11/04 07:43:23;;;;;;;1.35;1.00;;;21.70;38.00;;;;;;6182266;23;20277;-42
2023/11/04 07:45:50;;;;;;;3.20;1.50;;;21.70;38.20;;;;;;6182409;23;20178;-42
2023/11/04 07:48:16;;;;;;;1.75;1.00;;;21.80;38.40;;;;;;6184065;23;20269;-42
2023/11/04 07:50:43;;;;;;;1.10;1.00;;;21.80;38.50;;;;;;6183905;23;20318;-42
2023/11/04 07:53:09;;;;;;;2.15;0.90;;;21.80;38.70;;;;;;6182057;23;20234;-43
2023/11/04 07:55:36;;;;;;;1.27;0.90;;;21.80;38.70;;;;;;6177786;23;20182;-42
2023/11/04 07:58:03;;;;;;;1.00;1.00;;;21.90;38.90;;;;;;6180267;23;20622;-41
2023/11/04 08:00:29;;;;;;;2.63;1.20;;;21.90;39.10;;;;;;6181231;23;20639;-42
2023/11/04 08:02:57;;;;;;;2.72;1.30;;;21.80;39.20;;;;;;6179862;23;20566;-41
2023/11/04 08:05:23;;;;;;;1.30;1.20;;;21.80;39.40;;;;;;6181559;23;20185;-42
2023/11/04 08:07:49;;;;;;;1.80;1.10;;;21.70;39.40;;;;;;6181709;23;20664;-41
2023/11/04 08:10:17;;;;;;;1.17;1.05;;;21.70;39.50;;;;;;6176780;23;20569;-42
2023/11/04 08:12:43;;;;;;;1.45;1.00;;;21.70;39.60;;;;;;6183808;23;20179;-41
2023/11/04 08:15:12;;;;;;;1.25;1.10;;;21.70;39.60;;;;;;6171179;23;20190;-41
2023/11/04 08:17:38;;;;;;;1.75;0.88;;;21.80;39.50;;;;;;6182265;23;20207;-40
2023/11/04 08:20:08;;;;;;;1.52;0.88;;;21.90;39.60;;;;;;6181260;23;20201;-41
2023/11/04 08:22:35;;;;;;;1.40;1.00;;;21.90;39.60;;;;;;6180105;23;20636;-41
2023/11/04 08:25:01;;;;;;;1.63;0.93;;;21.90;39.70;;;;;;6182672;23;20703;-43
2023/11/04 08:27:27;;;;;;;1.95;1.08;;;21.90;39.80;;;;;;6182069;23;20194;-41
2023/11/04 08:29:54;;;;;;;1.88;0.90;;;21.90;39.90;;;;;;6182532;23;20185;-41
2023/11/04 08:32:21;;;;;;;1.85;1.20;;;21.90;39.90;;;;;;6174745;23;20257;-41
2023/11/04 08:34:47;;;;;;;1.83;0.98;;;21.90;39.90;;;;;;6170937;23;20206;-42
2023/11/04 08:37:14;;;;;;;1.23;1.00;;;21.90;39.80;;;;;;6179890;23;20667;-44
2023/11/04 08:39:41;;;;;;;2.10;1.33;;;22.00;40.00;;;;;;6182780;23;20545;-43
2023/11/04 08:42:08;;;;;;;1.88;1.13;;;22.00;40.00;;;;;;6183316;23;20179;-42
2023/11/04 08:44:35;;;;;;;1.10;1.00;;;22.00;40.00;;;;;;6182408;23;20190;-41
2023/11/04 08:47:01;;;;;;;1.20;1.00;;;22.00;39.90;;;;;;6180204;23;20714;-42
2023/11/04 08:49:28;;;;;;;2.70;1.20;;;22.10;40.00;;;;;;6175449;23;20185;-42
2023/11/04 08:51:56;;;;;;;3.13;1.33;;;22.10;37.90;;;;;;6177582;23;20203;-42
2023/11/04 08:54:22;;;;;;;1.38;1.20;;;22.00;36.70;;;;;;6182576;23;20201;-41
2023/11/04 08:56:49;;;;;;;0.90;0.90;;;22.00;37.50;;;;;;6183138;23;20595;-41
2023/11/04 08:59:15;;;;;;;1.55;1.00;;;22.10;38.40;;;;;;6183535;23;20202;-42
2023/11/04 09:01:41;;;;;;;0.93;0.90;;;22.10;39.00;;;;;;6182622;23;20257;-42
2023/11/04 09:04:11;;;;;;;1.10;1.00;;;22.10;39.20;;;;;;6184039;23;20179;-42
2023/11/04 09:06:37;;;;;;;1.35;0.80;;;22.10;40.00;;;;;;6183628;23;20198;-42
2023/11/04 09:09:06;;;;;;;1.02;1.00;;;22.10;39.40;;;;;;6180106;23;20260;-41
2023/11/04 09:11:32;;;;;;;1.77;1.20;;;22.20;39.50;;;;;;6182667;23;20499;-41
2023/11/04 09:13:58;;;;;;;0.82;0.80;;;22.20;39.50;;;;;;6181979;23;20174;-41
2023/11/04 09:16:25;;;;;;;1.02;1.00;;;22.20;39.50;;;;;;6183449;23;20369;-41
2023/11/04 09:18:51;;;;;;;1.60;1.00;;;22.20;39.60;;;;;;6181972;23;20289;-41
2023/11/04 09:21:18;;;;;;;1.10;0.90;;;22.10;39.40;;;;;;6183921;23;20265;-42
2023/11/04 09:23:44;;;;;;;1.25;0.95;;;22.10;39.50;;;;;;6183450;23;20201;-42
2023/11/04 09:26:11;;;;;;;1.08;0.73;;;22.20;39.60;;;;;;6179527;23;20226;-42
2023/11/04 09:28:38;;;;;;;0.80;0.80;;;22.20;39.60;;;;;;6182249;23;20227;-42
2023/11/04 09:31:05;;;;;;;0.80;0.80;;;22.20;39.60;;;;;;6183157;23;20178;-42
2023/11/04 09:33:33;;;;;;;1.10;1.00;;;22.20;39.70;;;;;;6183235;23;20257;-42
2023/11/04 09:36:00;;;;;;;1.60;1.00;;;22.20;39.70;;;;;;6181386;23;20202;-42
2023/11/04 09:38:27;;;;;;;1.00;0.70;;;22.20;39.70;;;;;;6181898;23;20228;-42
2023/11/04 09:40:53;;;;;;;1.75;0.98;;;22.20;39.60;;;;;;6184802;23;20175;-42
2023/11/04 09:43:19;;;;;;;2.08;1.08;;;22.20;39.60;;;;;;6182531;23;20174;-43
2023/11/04 09:45:46;;;;;;;1.70;1.10;;;22.20;39.50;;;;;;6184748;23;20198;-41
2023/11/04 09:48:12;;;;;;;0.90;0.90;;;22.20;39.50;;;;;;6183813;23;20260;-42
2023/11/04 09:50:39;;;;;;;1.23;1.00;;;22.20;39.50;;;;;;6185811;23;20258;-42
2023/11/04 09:53:06;;;;;;;1.10;1.00;;;22.20;40.30;;;;;;6184719;23;20216;-41
2023/11/04 09:55:33;;;;;;;1.25;1.00;;;22.20;39.60;;;;;;6185300;23;20500;-42
2023/11/04 09:58:00;;;;;;;1.65;1.30;;;22.20;39.60;;;;;;6185025;23;20236;-41
2023/11/04 10:00:26;;;;;;;0.93;0.93;;;22.20;39.60;;;;;;6184835;23;20218;-42
2023/11/04 10:02:53;;;;;;;1.42;1.00;;;22.20;39.60;;;;;;6180794;23;20261;-42
2023/11/04 10:05:20;;;;;;;1.50;0.90;;;22.20;39.60;;;;;;6184185;23;20210;-42
2023/11/04 10:07:47;;;;;;;1.02;0.98;;;22.20;39.60;;;;;;6185570;23;20201;-42
2023/11/04 10:10:14;;;;;;;1.17;1.00;;;22.20;39.60;;;;;;6184735;23;20174;-42
2023/11/04 10:12:39;;;;;;;0.88;0.88;;;22.20;39.60;;;;;;6184288;23;20224;-42
2023/11/04 10:15:06;;;;;;;0.95;0.90;;;22.30;39.70;;;;;;6184876;23;20182;-42
2023/11/04 10:17:32;;;;;;;1.00;0.90;;;22.20;39.70;;;;;;6178690;23;20285;-42
2023/11/04 10:19:59;;;;;;;1.13;1.02;;;22.30;39.90;;;;;;6165056;23;20279;-36
2023/11/04 10:22:25;;;;;;;1.10;1.00;;;22.30;39.70;;;;;;6174056;23;21012;-41
2023/11/04 10:24:52;;;;;;;2.42;1.10;;;22.30;39.70;;;;;;6173795;23;20577;-37
2023/11/04 10:27:18;;;;;;;2.22;1.27;;;22.30;41.00;;;;;;6173859;23;20326;-39
2023/11/04 10:29:45;;;;;;;1.25;0.98;;;22.30;41.10;;;;;;6182590;23;20262;-39
2023/11/04 10:32:12;;;;;;;0.88;0.88;;;22.30;40.60;;;;;;6181452;23;20253;-39
2023/11/04 10:34:40;;;;;;;1.30;1.20;;;22.30;41.40;;;;;;6184454;23;20237;-39
2023/11/04 10:37:07;;;;;;;2.38;1.38;;;22.30;41.40;;;;;;6180138;23;20750;-40
2023/11/04 10:39:33;;;;;;;2.67;1.05;;;22.30;41.40;;;;;;6181735;23;20245;-39
2023/11/04 10:42:00;;;;;;;1.88;0.90;;;22.20;41.30;;;;;;6178796;23;20178;-38
2023/11/04 10:44:27;;;;;;;1.20;1.10;;;22.30;41.50;;;;;;6171781;23;20288;-37
2023/11/04 10:46:53;;;;;;;0.80;0.80;;;22.30;41.50;;;;;;6167785;23;20203;-42
2023/11/04 10:49:20;;;;;;;1.10;0.88;;;22.30;41.70;;;;;;6172082;23;20422;-39
2023/11/04 10:51:46;;;;;;;0.82;0.82;;;22.30;41.80;;;;;;6172680;23;20217;-39
2023/11/04 10:54:12;;;;;;;1.30;0.90;;;22.30;41.50;;;;;;6178116;23;20647;-39
2023/11/04 10:56:40;;;;;;;2.08;1.00;;;22.30;41.50;;;;;;6181248;23;20203;-40
2023/11/04 10:59:06;;;;;;;3.33;1.05;;;22.30;41.80;;;;;;6179179;23;20233;-41
2023/11/04 11:01:34;;;;;;;1.20;1.00;;;22.30;41.40;;;;;;6180334;23;20174;-42
2023/11/04 11:04:01;;;;;;;0.80;0.80;;;22.40;41.50;;;;;;6174503;23;20188;-43
2023/11/04 11:06:27;;;;;;;3.03;1.10;;;22.40;41.50;;;;;;6171558;23;20202;-38
2023/11/04 11:08:54;;;;;;;0.93;0.90;;;22.40;41.90;;;;;;6169974;23;20178;-42
2023/11/04 11:11:20;;;;;;;0.85;0.85;;;22.40;42.10;;;;;;6172966;23;20182;-42
2023/11/04 11:13:47;;;;;;;1.02;0.93;;;22.40;41.70;;;;;;6169939;23;20179;-40
2023/11/04 11:16:14;;;;;;;0.95;0.90;;;22.40;41.50;;;;;;6168490;23;20202;-40
2023/11/04 11:18:40;;;;;;;1.70;0.80;;;22.50;42.50;;;;;;6170787;23;20260;-36
2023/11/04 11:21:07;;;;;;;1.63;1.10;;;22.40;42.20;;;;;;6172309;23;20269;-37
2023/11/04 11:23:34;;;;;;;1.42;0.88;;;22.40;42.60;;;;;;6178048;23;20167;-39
2023/11/04 11:26:00;;;;;;;1.33;0.98;;;22.40;42.60;;;;;;6175998;23;20226;-41
2023/11/04 11:28:26;;;;;;;0.82;0.80;;;22.40;42.50;;;;;;6179462;23;20197;-39
2023/11/04 11:30:53;;;;;;;0.80;0.80;;;22.50;43.40;;;;;;6179314;23;20297;-37
2023/11/04 11:33:19;;;;;;;0.70;0.70;;;22.50;42.80;;;;;;6184264;23;20702;-42
2023/11/04 11:35:46;;;;;;;1.42;0.80;;;22.50;43.00;;;;;;6181697;23;20262;-42
2023/11/04 11:38:12;;;;;;;1.15;1.05;;;22.50;43.10;;;;;;6181194;23;20234;-42
2023/11/04 11:40:39;;;;;;;0.90;0.80;;;22.50;43.00;;;;;;6184132;23;20209;-42
2023/11/04 11:43:05;;;;;;;2.25;1.05;;;22.50;43.60;;;;;;6183328;23;20317;-37
2023/11/04 11:45:32;;;;;;;0.82;0.82;;;22.50;43.40;;;;;;6182140;23;20201;-36
2023/11/04 11:47:59;;;;;;;1.48;1.00;;;22.50;43.30;;;;;;6183076;23;20206;-37
2023/11/04 11:50:25;;;;;;;5.97;2.40;;;22.50;43.20;;;;;;6182157;23;20485;-41
2023/11/04 11:52:52;;;;;;;6.10;3.20;;;22.50;43.40;;;;;;6183426;23;20258;-38
2023/11/04 11:55:18;;;;;;;9.27;4.47;;;22.50;43.10;;;;;;6182940;23;20199;-33
2023/11/04 11:57:44;;;;;;;16.02;7.07;;;22.50;43.10;;;;;;6180827;23;20277;-39
2023/11/04 12:00:11;;;;;;;28.08;13.15;;;22.50;43.40;;;;;;6176513;23;20703;-38
2023/11/04 12:02:38;;;;;;;42.17;20.50;;;22.50;44.60;;;;;;6180992;23;20564;-39
2023/11/04 12:05:04;;;;;;;55.75;30.67;;;22.50;45.60;;;;;;6182972;23;20179;-39
2023/11/04 12:07:31;;;;;;;50.42;27.75;;;22.60;47.00;;;;;;6183286;23;20179;-39
2023/11/04 12:09:57;;;;;;;67.22;35.53;;;22.70;45.80;;;;;;6172317;23;20183;-39
2023/11/04 12:12:24;;;;;;;59.30;32.42;;;22.70;49.30;;;;;;6174716;23;20174;-39
2023/11/04 12:14:50;;;;;;;57.20;30.70;;;22.70;47.10;;;;;;6175306;23;20646;-36
2023/11/04 12:17:17;;;;;;;60.35;32.55;;;22.70;47.90;;;;;;6182184;23;20573;-34
2023/11/04 12:19:43;;;;;;;56.00;31.27;;;22.70;51.20;;;;;;6180690;23;20549;-37
2023/11/04 12:22:10;;;;;;;55.38;31.67;;;22.70;49.00;;;;;;6182906;23;20553;-38
2023/11/04 12:24:36;;;;;;;55.15;31.52;;;22.70;51.20;;;;;;6184134;23;20206;-38
2023/11/04 12:27:03;;;;;;;54.90;29.40;;;22.70;51.00;;;;;;6184087;23;20234;-38
2023/11/04 12:29:29;;;;;;;58.92;27.98;;;22.80;50.20;;;;;;6181147;23;20181;-38
2023/11/04 12:31:55;;;;;;;54.15;29.13;;;22.80;50.70;;;;;;6179172;23;20200;-37
2023/11/04 12:34:22;;;;;;;49.20;28.65;;;22.70;49.20;;;;;;6181956;23;20632;-38
2023/11/04 12:36:49;;;;;;;50.60;26.40;;;22.70;48.60;;;;;;6182150;23;20207;-36
2023/11/04 12:39:15;;;;;;;50.10;26.00;;;22.70;48.70;;;;;;6182722;23;20392;-42
2023/11/04 12:41:42;;;;;;;46.47;25.30;;;22.70;48.50;;;;;;6182402;23;20261;-34